Cherry Point, North Carolina
Current Conditions -  °F | °C
As of 11:54 AM on Thursday 30 Oct 2014 (Local Time) from KNKT Reporting Station
Broken Clouds Broken Clouds  
Wind Chill: 65°   Ceiling: 1500
Heat Index: 65°   Visibility: 10mi
Dew Point: 54°   Wind: 12mph
Humidity: 68%   Direction: 50°NE
Pressure: 30.02"   Gusts: NA
Location:  34.9°N, 76.88°W
Report Text: KNKT 301554Z 05010KT 10SM BKN015 BKN080 18/12 A3002 RMK AO2 RAB22E27 SLP161 P0000 T01830122 $
Loading
Personal Weather Stations






























Interactive Weather Map New forecast layout! Learn more

10-Day Weather Forecast

Advertisements
Track Severe Weather on mobile